Yellow Pine, Idaho
Current Conditions -  °F | °C
As of 12:51 AM on Friday 24 Oct 2014 (Local Time) from KMYL Reporting Station
Light Rain Light Rain  
Wind Chill: 41°   Ceiling: 3200
Heat Index: 41°   Visibility: 8mi
Dew Point: 40°   Wind: 3mph
Humidity: 96%   Direction: 90°E
Pressure: 30.08"   Gusts: NA
Location:  44.96°N, 115.49°W
Report Text: KMYL 240651Z AUTO 09003KT 8SM -RA OVC032 05/04 A3008 RMK AO2 SLP183 P0002 T00500044 400780050
Loading
Personal Weather Stations






























Interactive Weather Map
Tropical Storm Tracking
New forecast layout! Learn more

10-Day Weather Forecast

Advertisements
Track Severe Weather on mobile